sensor_id;sensor_type;location;lat;lon;timestamp;pressure;altitude;pressure_sealevel;temperature;humidity
77954;BME280;67151;52.544;6.034;2023-06-26T00:00:11;101150;;;28.2;43.6
77954;BME280;67151;52.544;6.034;2023-06-26T00:00:25;101140;;;28.2;43.6
77954;BME280;67151;52.544;6.034;2023-06-26T00:00:42;101150;;;28.2;43.6
77954;BME280;67151;52.544;6.034;2023-06-26T00:00:59;101150;;;28.2;43.6
77954;BME280;67151;52.544;6.034;2023-06-26T00:01:10;101140;;;28.2;43.6
77954;BME280;67151;52.544;6.034;2023-06-26T00:01:25;101150;;;28.2;43.6
77954;BME280;67151;52.544;6.034;2023-06-26T00:01:40;101150;;;28.2;43.6
77954;BME280;67151;52.544;6.034;2023-06-26T00:01:55;101150;;;28.2;43.6
77954;BME280;67151;52.544;6.034;2023-06-26T00:02:11;101150;;;28.2;43.6
77954;BME280;67151;52.544;6.034;2023-06-26T00:02:27;101150;;;28.2;43.6
77954;BME280;67151;52.544;6.034;2023-06-26T00:02:40;101150;;;28.2;43.6
77954;BME280;67151;52.544;6.034;2023-06-26T00:02:58;101150;;;28.2;43.6
77954;BME280;67151;52.544;6.034;2023-06-26T00:03:10;101140;;;28.2;43.5
77954;BME280;67151;52.544;6.034;2023-06-26T00:03:25;101150;;;28.2;43.6
77954;BME280;67151;52.544;6.034;2023-06-26T00:03:40;101140;;;28.2;43.6
77954;BME280;67151;52.544;6.034;2023-06-26T00:03:55;101150;;;28.2;43.6
77954;BME280;67151;52.544;6.034;2023-06-26T00:04:10;101140;;;28.2;43.6
77954;BME280;67151;52.544;6.034;2023-06-26T00:04:25;101150;;;28.2;43.6
77954;BME280;67151;52.544;6.034;2023-06-26T00:04:41;101140;;;28.2;43.6
77954;BME280;67151;52.544;6.034;2023-06-26T00:04:55;101140;;;28.1;43.7
77954;BME280;67151;52.544;6.034;2023-06-26T00:05:10;101150;;;28.2;43.6
77954;BME280;67151;52.544;6.034;2023-06-26T00:05:25;101140;;;28.2;43.7
77954;BME280;67151;52.544;6.034;2023-06-26T00:05:40;101140;;;28.2;43.7
77954;BME280;67151;52.544;6.034;2023-06-26T00:05:55;101140;;;28.2;43.6
77954;BME280;67151;52.544;6.034;2023-06-26T00:06:10;101140;;;28.2;43.6
77954;BME280;67151;52.544;6.034;2023-06-26T00:06:25;101140;;;28.2;43.6
77954;BME280;67151;52.544;6.034;2023-06-26T00:06:40;101140;;;28.2;43.6
77954;BME280;67151;52.544;6.034;2023-06-26T00:06:55;101140;;;28.2;43.6
77954;BME280;67151;52.544;6.034;2023-06-26T00:07:10;101140;;;28.2;43.6
77954;BME280;67151;52.544;6.034;2023-06-26T00:07:25;101140;;;28.2;43.6
77954;BME280;67151;52.544;6.034;2023-06-26T00:07:40;101140;;;28.2;43.6
77954;BME280;67151;52.544;6.034;2023-06-26T00:07:55;101140;;;28.2;43.6
77954;BME280;67151;52.544;6.034;2023-06-26T00:08:10;101140;;;28.2;43.6
77954;BME280;67151;52.544;6.034;2023-06-26T00:08:26;101140;;;28.2;43.6
77954;BME280;67151;52.544;6.034;2023-06-26T00:08:40;101130;;;28.2;43.6
77954;BME280;67151;52.544;6.034;2023-06-26T00:08:56;101140;;;28.2;43.6
77954;BME280;67151;52.544;6.034;2023-06-26T00:09:10;101130;;;28.2;43.6
77954;BME280;67151;52.544;6.034;2023-06-26T00:09:25;101130;;;28.2;43.6
77954;BME280;67151;52.544;6.034;2023-06-26T00:09:40;101140;;;28.2;43.6
77954;BME280;67151;52.544;6.034;2023-06-26T00:09:55;101130;;;28.2;43.6
77954;BME280;67151;52.544;6.034;2023-06-26T00:10:10;101130;;;28.2;43.6
77954;BME280;67151;52.544;6.034;2023-06-26T00:10:25;101140;;;28.2;43.7
77954;BME280;67151;52.544;6.034;2023-06-26T00:10:40;101130;;;28.2;43.7
77954;BME280;67151;52.544;6.034;2023-06-26T00:10:55;101130;;;28.2;43.6
77954;BME280;67151;52.544;6.034;2023-06-26T00:11:10;101130;;;28.1;43.7
77954;BME280;67151;52.544;6.034;2023-06-26T00:11:25;101130;;;28.2;43.7
77954;BME280;67151;52.544;6.034;2023-06-26T00:11:40;101130;;;28.2;43.6
77954;BME280;67151;52.544;6.034;2023-06-26T00:11:55;101130;;;28.2;43.6
77954;BME280;67151;52.544;6.034;2023-06-26T00:12:10;101140;;;28.2;43.6
77954;BME280;67151;52.544;6.034;2023-06-26T00:12:25;101130;;;28.2;43.7
77954;BME280;67151;52.544;6.034;2023-06-26T00:12:40;101130;;;28.2;43.6
77954;BME280;67151;52.544;6.034;2023-06-26T00:12:55;101120;;;28.2;43.6
77954;BME280;67151;52.544;6.034;2023-06-26T00:13:10;101130;;;28.2;43.7
77954;BME280;67151;52.544;6.034;2023-06-26T00:13:25;101130;;;28.2;43.6
77954;BME280;67151;52.544;6.034;2023-06-26T00:13:40;101140;;;28.2;43.7
77954;BME280;67151;52.544;6.034;2023-06-26T00:13:55;101120;;;28.2;43.7
77954;BME280;67151;52.544;6.034;2023-06-26T00:14:10;101130;;;28.2;43.7
77954;BME280;67151;52.544;6.034;2023-06-26T00:14:25;101130;;;28.1;43.6
77954;BME280;67151;52.544;6.034;2023-06-26T00:14:40;101130;;;28.1;43.7
77954;BME280;67151;52.544;6.034;2023-06-26T00:14:56;101130;;;28.1;43.7
77954;BME280;67151;52.544;6.034;2023-06-26T00:15:10;101130;;;28.1;43.7
77954;BME280;67151;52.544;6.034;2023-06-26T00:15:25;101120;;;28.1;43.7
77954;BME280;67151;52.544;6.034;2023-06-26T00:15:40;101130;;;28.1;43.7
77954;BME280;67151;52.544;6.034;2023-06-26T00:15:55;101130;;;28.1;43.7
77954;BME280;67151;52.544;6.034;2023-06-26T00:16:10;101120;;;28.1;43.7
77954;BME280;67151;52.544;6.034;2023-06-26T00:16:25;101130;;;28.1;43.7
77954;BME280;67151;52.544;6.034;2023-06-26T00:16:40;101130;;;28.1;43.7
77954;BME280;67151;52.544;6.034;2023-06-26T00:16:55;101130;;;28.1;43.7
77954;BME280;67151;52.544;6.034;2023-06-26T00:17:11;101130;;;28.2;43.6
77954;BME280;67151;52.544;6.034;2023-06-26T00:17:25;101120;;;28.1;43.7
77954;BME280;67151;52.544;6.034;2023-06-26T00:17:40;101120;;;28.1;43.7
77954;BME280;67151;52.544;6.034;2023-06-26T00:17:55;101130;;;28.2;43.7
77954;BME280;67151;52.544;6.034;2023-06-26T00:18:10;101130;;;28.2;43.7
77954;BME280;67151;52.544;6.034;2023-06-26T00:18:25;101130;;;28.2;43.7
77954;BME280;67151;52.544;6.034;2023-06-26T00:18:40;101120;;;28.2;43.6
77954;BME280;67151;52.544;6.034;2023-06-26T00:18:55;101130;;;28.2;43.7
77954;BME280;67151;52.544;6.034;2023-06-26T00:19:10;101130;;;28.1;43.7
77954;BME280;67151;52.544;6.034;2023-06-26T00:19:25;101120;;;28.2;43.7
77954;BME280;67151;52.544;6.034;2023-06-26T00:19:40;101120;;;28.2;43.7
77954;BME280;67151;52.544;6.034;2023-06-26T00:19:55;101130;;;28.1;43.7
77954;BME280;67151;52.544;6.034;2023-06-26T00:20:10;101130;;;28.1;43.7
77954;BME280;67151;52.544;6.034;2023-06-26T00:20:25;101130;;;28.1;43.7
77954;BME280;67151;52.544;6.034;2023-06-26T00:20:40;101130;;;28.2;43.7
77954;BME280;67151;52.544;6.034;2023-06-26T00:20:55;101130;;;28.2;43.7
77954;BME280;67151;52.544;6.034;2023-06-26T00:21:10;101120;;;28.2;43.7
77954;BME280;67151;52.544;6.034;2023-06-26T00:21:25;101120;;;28.1;43.7
77954;BME280;67151;52.544;6.034;2023-06-26T00:21:40;101120;;;28.2;43.7
77954;BME280;67151;52.544;6.034;2023-06-26T00:21:55;101130;;;28.2;43.7
77954;BME280;67151;52.544;6.034;2023-06-26T00:22:10;101120;;;28.1;43.7
77954;BME280;67151;52.544;6.034;2023-06-26T00:22:25;101120;;;28.1;43.6
77954;BME280;67151;52.544;6.034;2023-06-26T00:22:40;101120;;;28.2;43.6
77954;BME280;67151;52.544;6.034;2023-06-26T00:22:55;101120;;;28.2;43.7
77954;BME280;67151;52.544;6.034;2023-06-26T00:23:11;101120;;;28.2;43.6
77954;BME280;67151;52.544;6.034;2023-06-26T00:23:25;101130;;;28.2;43.6
77954;BME280;67151;52.544;6.034;2023-06-26T00:23:40;101120;;;28.2;43.6
77954;BME280;67151;52.544;6.034;2023-06-26T00:23:55;101130;;;28.2;43.6
77954;BME280;67151;52.544;6.034;2023-06-26T00:24:10;101120;;;28.2;43.7
77954;BME280;67151;52.544;6.034;2023-06-26T00:24:25;101120;;;28.1;43.7
77954;BME280;67151;52.544;6.034;2023-06-26T00:24:40;101120;;;28.1;43.7
77954;BME280;67151;52.544;6.034;2023-06-26T00:24:55;101120;;;28.1;43.7
77954;BME280;67151;52.544;6.034;2023-06-26T00:25:10;101120;;;28.1;43.7
77954;BME280;67151;52.544;6.034;2023-06-26T00:25:25;101120;;;28.1;43.7
77954;BME280;67151;52.544;6.034;2023-06-26T00:25:40;101110;;;28.1;43.7
77954;BME280;67151;52.544;6.034;2023-06-26T00:25:55;101120;;;28.1;43.7
77954;BME280;67151;52.544;6.034;2023-06-26T00:26:10;101120;;;28.1;43.7
77954;BME280;67151;52.544;6.034;2023-06-26T00:26:25;101110;;;28.1;43.7
77954;BME280;67151;52.544;6.034;2023-06-26T00:26:40;101110;;;28.1;43.7
77954;BME280;67151;52.544;6.034;2023-06-26T00:26:55;101120;;;28.1;43.8
77954;BME280;67151;52.544;6.034;2023-06-26T00:27:10;101110;;;28.1;43.7
77954;BME280;67151;52.544;6.034;2023-06-26T00:27:25;101110;;;28.1;43.7
77954;BME280;67151;52.544;6.034;2023-06-26T00:27:40;101120;;;28.1;43.7
77954;BME280;67151;52.544;6.034;2023-06-26T00:27:55;101120;;;28.1;43.7
77954;BME280;67151;52.544;6.034;2023-06-26T00:28:10;101110;;;28.1;43.7
77954;BME280;67151;52.544;6.034;2023-06-26T00:28:25;101120;;;28.1;43.7
77954;BME280;67151;52.544;6.034;2023-06-26T00:28:40;101120;;;28.1;43.7
77954;BME280;67151;52.544;6.034;2023-06-26T00:28:55;101120;;;28.1;43.7
77954;BME280;67151;52.544;6.034;2023-06-26T00:29:10;101110;;;28.1;43.8
77954;BME280;67151;52.544;6.034;2023-06-26T00:29:25;101110;;;28.1;43.8
77954;BME280;67151;52.544;6.034;2023-06-26T00:29:40;101120;;;28.1;43.7
77954;BME280;67151;52.544;6.034;2023-06-26T00:29:55;101110;;;28.1;43.8
77954;BME280;67151;52.544;6.034;2023-06-26T00:30:11;101110;;;28.1;43.8
77954;BME280;67151;52.544;6.034;2023-06-26T00:30:25;101110;;;28.1;43.8
77954;BME280;67151;52.544;6.034;2023-06-26T00:30:40;101110;;;28.1;43.8
77954;BME280;67151;52.544;6.034;2023-06-26T00:30:55;101110;;;28.1;43.7
77954;BME280;67151;52.544;6.034;2023-06-26T00:31:10;101120;;;28.1;43.7
77954;BME280;67151;52.544;6.034;2023-06-26T00:31:25;101110;;;28.1;43.7
77954;BME280;67151;52.544;6.034;2023-06-26T00:31:40;101100;;;28.1;43.7
77954;BME280;67151;52.544;6.034;2023-06-26T00:31:55;101110;;;28.1;43.7
77954;BME280;67151;52.544;6.034;2023-06-26T00:32:10;101110;;;28.1;43.7
77954;BME280;67151;52.544;6.034;2023-06-26T00:32:25;101110;;;28.1;43.7
77954;BME280;67151;52.544;6.034;2023-06-26T00:32:40;101110;;;28.1;43.7
77954;BME280;67151;52.544;6.034;2023-06-26T00:32:55;101100;;;28.1;43.7
77954;BME280;67151;52.544;6.034;2023-06-26T00:33:10;101110;;;28.1;43.7
77954;BME280;67151;52.544;6.034;2023-06-26T00:33:25;101120;;;28.1;43.7
77954;BME280;67151;52.544;6.034;2023-06-26T00:33:40;101110;;;28.1;43.7
77954;BME280;67151;52.544;6.034;2023-06-26T00:33:55;101100;;;28.1;43.7
77954;BME280;67151;52.544;6.034;2023-06-26T00:34:10;101110;;;28.1;43.7
77954;BME280;67151;52.544;6.034;2023-06-26T00:34:25;101100;;;28.1;43.7
77954;BME280;67151;52.544;6.034;2023-06-26T00:34:41;101100;;;28.2;43.6
77954;BME280;67151;52.544;6.034;2023-06-26T00:34:55;101110;;;28.2;43.6
77954;BME280;67151;52.544;6.034;2023-06-26T00:35:10;101110;;;28.1;43.6
77954;BME280;67151;52.544;6.034;2023-06-26T00:35:25;101100;;;28.1;43.6
77954;BME280;67151;52.544;6.034;2023-06-26T00:35:40;101100;;;28.1;43.7
77954;BME280;67151;52.544;6.034;2023-06-26T00:35:55;101100;;;28.1;43.7
77954;BME280;67151;52.544;6.034;2023-06-26T00:36:10;101110;;;28.1;43.7
77954;BME280;67151;52.544;6.034;2023-06-26T00:36:25;101100;;;28.1;43.7
77954;BME280;67151;52.544;6.034;2023-06-26T00:36:40;101110;;;28.1;43.7
77954;BME280;67151;52.544;6.034;2023-06-26T00:36:55;101110;;;28.1;43.7
77954;BME280;67151;52.544;6.034;2023-06-26T00:37:10;101110;;;28.1;43.7
77954;BME280;67151;52.544;6.034;2023-06-26T00:37:25;101110;;;28.1;43.7
77954;BME280;67151;52.544;6.034;2023-06-26T00:37:40;101110;;;28.1;43.7
77954;BME280;67151;52.544;6.034;2023-06-26T00:37:55;101110;;;28.1;43.7
77954;BME280;67151;52.544;6.034;2023-06-26T00:38:10;101100;;;28.1;43.7
77954;BME280;67151;52.544;6.034;2023-06-26T00:38:25;101100;;;28.1;43.7
77954;BME280;67151;52.544;6.034;2023-06-26T00:38:40;101100;;;28.1;43.7
77954;BME280;67151;52.544;6.034;2023-06-26T00:38:55;101100;;;28.1;43.7
77954;BME280;67151;52.544;6.034;2023-06-26T00:39:10;101110;;;28.1;43.7
77954;BME280;67151;52.544;6.034;2023-06-26T00:39:25;101110;;;28.1;43.7
77954;BME280;67151;52.544;6.034;2023-06-26T00:39:40;101110;;;28.1;43.7
77954;BME280;67151;52.544;6.034;2023-06-26T00:39:55;101100;;;28.1;43.7
77954;BME280;67151;52.544;6.034;2023-06-26T00:40:12;101100;;;28.1;43.7
77954;BME280;67151;52.544;6.034;2023-06-26T00:40:25;101100;;;28.1;43.7
77954;BME280;67151;52.544;6.034;2023-06-26T00:40:40;101100;;;28.1;43.8
77954;BME280;67151;52.544;6.034;2023-06-26T00:40:55;101100;;;28.1;43.7
77954;BME280;67151;52.544;6.034;2023-06-26T00:41:10;101100;;;28.1;43.7
77954;BME280;67151;52.544;6.034;2023-06-26T00:41:25;101100;;;28.1;43.7
77954;BME280;67151;52.544;6.034;2023-06-26T00:41:40;101110;;;28.1;43.7
77954;BME280;67151;52.544;6.034;2023-06-26T00:41:55;101100;;;28.1;43.7
77954;BME280;67151;52.544;6.034;2023-06-26T00:42:10;101110;;;28.1;43.7
77954;BME280;67151;52.544;6.034;2023-06-26T00:42:25;101100;;;28.1;43.7
77954;BME280;67151;52.544;6.034;2023-06-26T00:42:40;101100;;;28.1;43.7
77954;BME280;67151;52.544;6.034;2023-06-26T00:42:55;101110;;;28.1;43.7
77954;BME280;67151;52.544;6.034;2023-06-26T00:43:10;101100;;;28.1;43.7
77954;BME280;67151;52.544;6.034;2023-06-26T00:43:25;101100;;;28.1;43.7
77954;BME280;67151;52.544;6.034;2023-06-26T00:43:40;101100;;;28.1;43.7
77954;BME280;67151;52.544;6.034;2023-06-26T00:43:55;101100;;;28.1;43.8
77954;BME280;67151;52.544;6.034;2023-06-26T00:44:10;101100;;;28.1;43.8
77954;BME280;67151;52.544;6.034;2023-06-26T00:44:25;101100;;;28.1;43.8
77954;BME280;67151;52.544;6.034;2023-06-26T00:44:40;101100;;;28.1;43.8
77954;BME280;67151;52.544;6.034;2023-06-26T00:44:55;101100;;;28.1;43.8
77954;BME280;67151;52.544;6.034;2023-06-26T00:45:10;101090;;;28.1;43.8
77954;BME280;67151;52.544;6.034;2023-06-26T00:45:25;101100;;;28.1;43.7
77954;BME280;67151;52.544;6.034;2023-06-26T00:45:40;101100;;;28.1;43.8
77954;BME280;67151;52.544;6.034;2023-06-26T00:45:55;101090;;;28.1;43.8
77954;BME280;67151;52.544;6.034;2023-06-26T00:46:12;101090;;;28.1;43.7
77954;BME280;67151;52.544;6.034;2023-06-26T00:46:25;101090;;;28.1;43.7
77954;BME280;67151;52.544;6.034;2023-06-26T00:46:40;101090;;;28.1;43.7
77954;BME280;67151;52.544;6.034;2023-06-26T00:46:55;101090;;;28.1;43.7
77954;BME280;67151;52.544;6.034;2023-06-26T00:47:10;101100;;;28.1;43.7
77954;BME280;67151;52.544;6.034;2023-06-26T00:47:25;101090;;;28.1;43.7
77954;BME280;67151;52.544;6.034;2023-06-26T00:47:40;101100;;;28.1;43.7
77954;BME280;67151;52.544;6.034;2023-06-26T00:47:55;101090;;;28.1;43.7
77954;BME280;67151;52.544;6.034;2023-06-26T00:48:10;101090;;;28.1;43.7
77954;BME280;67151;52.544;6.034;2023-06-26T00:48:25;101090;;;28.1;43.7
77954;BME280;67151;52.544;6.034;2023-06-26T00:48:41;101090;;;28.1;43.7
77954;BME280;67151;52.544;6.034;2023-06-26T00:48:55;101100;;;28.1;43.8
77954;BME280;67151;52.544;6.034;2023-06-26T00:49:10;101090;;;28.1;43.8
77954;BME280;67151;52.544;6.034;2023-06-26T00:49:25;101100;;;28.1;43.7
77954;BME280;67151;52.544;6.034;2023-06-26T00:49:40;101090;;;28.1;43.8
77954;BME280;67151;52.544;6.034;2023-06-26T00:49:55;101090;;;28.1;43.7
77954;BME280;67151;52.544;6.034;2023-06-26T00:50:10;101090;;;28.1;43.7
77954;BME280;67151;52.544;6.034;2023-06-26T00:50:25;101090;;;28.1;43.7
77954;BME280;67151;52.544;6.034;2023-06-26T00:50:40;101080;;;28.1;43.7
77954;BME280;67151;52.544;6.034;2023-06-26T00:50:55;101090;;;28.1;43.8
77954;BME280;67151;52.544;6.034;2023-06-26T00:51:10;101090;;;28.1;43.7
77954;BME280;67151;52.544;6.034;2023-06-26T00:51:25;101090;;;28.1;43.8
77954;BME280;67151;52.544;6.034;2023-06-26T00:51:40;101090;;;28.1;43.8
77954;BME280;67151;52.544;6.034;2023-06-26T00:51:55;101090;;;28.1;43.8
77954;BME280;67151;52.544;6.034;2023-06-26T00:52:10;101090;;;28.1;43.8
77954;BME280;67151;52.544;6.034;2023-06-26T00:52:25;101090;;;28.1;43.8
77954;BME280;67151;52.544;6.034;2023-06-26T00:52:40;101090;;;28.1;43.7
77954;BME280;67151;52.544;6.034;2023-06-26T00:52:55;101090;;;28.1;43.8
77954;BME280;67151;52.544;6.034;2023-06-26T00:53:10;101090;;;28.1;43.8
77954;BME280;67151;52.544;6.034;2023-06-26T00:53:25;101080;;;28.1;43.7
77954;BME280;67151;52.544;6.034;2023-06-26T00:53:41;101090;;;28.1;43.8
77954;BME280;67151;52.544;6.034;2023-06-26T00:53:56;101090;;;28.1;43.8
77954;BME280;67151;52.544;6.034;2023-06-26T00:54:10;101080;;;28.1;43.7
77954;BME280;67151;52.544;6.034;2023-06-26T00:54:25;101090;;;28.1;43.7
77954;BME280;67151;52.544;6.034;2023-06-26T00:54:40;101080;;;28.1;43.8
77954;BME280;67151;52.544;6.034;2023-06-26T00:54:55;101090;;;28.1;43.8
77954;BME280;67151;52.544;6.034;2023-06-26T00:55:10;101080;;;28.1;43.8
77954;BME280;67151;52.544;6.034;2023-06-26T00:55:25;101090;;;28.1;43.8
77954;BME280;67151;52.544;6.034;2023-06-26T00:55:40;101080;;;28.1;43.8
77954;BME280;67151;52.544;6.034;2023-06-26T00:55:55;101080;;;28.1;43.8
77954;BME280;67151;52.544;6.034;2023-06-26T00:56:10;101090;;;28.1;43.8
77954;BME280;67151;52.544;6.034;2023-06-26T00:56:25;101080;;;28.1;43.8
77954;BME280;67151;52.544;6.034;2023-06-26T00:56:40;101080;;;28.1;43.8
77954;BME280;67151;52.544;6.034;2023-06-26T00:56:55;101090;;;28.1;43.8
77954;BME280;67151;52.544;6.034;2023-06-26T00:57:10;101080;;;28.1;43.8
77954;BME280;67151;52.544;6.034;2023-06-26T00:57:25;101080;;;28.1;43.8
77954;BME280;67151;52.544;6.034;2023-06-26T00:57:40;101090;;;28.1;43.8
77954;BME280;67151;52.544;6.034;2023-06-26T00:57:55;101080;;;28.1;43.8
77954;BME280;67151;52.544;6.034;2023-06-26T00:58:10;101080;;;28;43.9
77954;BME280;67151;52.544;6.034;2023-06-26T00:58:25;101080;;;28;43.9
77954;BME280;67151;52.544;6.034;2023-06-26T00:58:40;101080;;;28;43.8
77954;BME280;67151;52.544;6.034;2023-06-26T00:58:55;101080;;;28;43.8
77954;BME280;67151;52.544;6.034;2023-06-26T00:59:10;101090;;;28;43.9
77954;BME280;67151;52.544;6.034;2023-06-26T00:59:25;101080;;;28;43.8
77954;BME280;67151;52.544;6.034;2023-06-26T00:59:40;101080;;;28;43.9
77954;BME280;67151;52.544;6.034;2023-06-26T00:59:55;101080;;;28.1;43.9
77954;BME280;67151;52.544;6.034;2023-06-26T01:00:11;101080;;;28;43.8
77954;BME280;67151;52.544;6.034;2023-06-26T01:00:26;101080;;;28;43.8
77954;BME280;67151;52.544;6.034;2023-06-26T01:00:40;101070;;;28.1;43.8
77954;BME280;67151;52.544;6.034;2023-06-26T01:00:55;101080;;;28.1;43.8
77954;BME280;67151;52.544;6.034;2023-06-26T01:01:10;101070;;;28;43.8
77954;BME280;67151;52.544;6.034;2023-06-26T01:01:25;101080;;;28;43.9
77954;BME280;67151;52.544;6.034;2023-06-26T01:01:40;101080;;;28.1;43.7
77954;BME280;67151;52.544;6.034;2023-06-26T01:01:55;101080;;;28;43.8
77954;BME280;67151;52.544;6.034;2023-06-26T01:02:10;101080;;;28.1;43.8
77954;BME280;67151;52.544;6.034;2023-06-26T01:02:26;101070;;;28.1;43.8
77954;BME280;67151;52.544;6.034;2023-06-26T01:02:40;101080;;;28.1;43.8
77954;BME280;67151;52.544;6.034;2023-06-26T01:02:55;101080;;;28.1;43.8
77954;BME280;67151;52.544;6.034;2023-06-26T01:03:11;101080;;;28;43.8
77954;BME280;67151;52.544;6.034;2023-06-26T01:03:25;101070;;;28;43.9
77954;BME280;67151;52.544;6.034;2023-06-26T01:03:40;101080;;;28;43.9
77954;BME280;67151;52.544;6.034;2023-06-26T01:03:55;101080;;;28;43.9
77954;BME280;67151;52.544;6.034;2023-06-26T01:04:10;101080;;;28;43.9
77954;BME280;67151;52.544;6.034;2023-06-26T01:04:25;101080;;;28;43.9
77954;BME280;67151;52.544;6.034;2023-06-26T01:04:40;101080;;;28;43.9
77954;BME280;67151;52.544;6.034;2023-06-26T01:04:55;101080;;;28.1;43.8
77954;BME280;67151;52.544;6.034;2023-06-26T01:05:10;101080;;;28;43.9
77954;BME280;67151;52.544;6.034;2023-06-26T01:05:26;101080;;;28;43.9
77954;BME280;67151;52.544;6.034;2023-06-26T01:05:40;101080;;;28;43.9
77954;BME280;67151;52.544;6.034;2023-06-26T01:05:55;101070;;;28;43.9
77954;BME280;67151;52.544;6.034;2023-06-26T01:06:11;101070;;;28;43.9
77954;BME280;67151;52.544;6.034;2023-06-26T01:06:25;101070;;;28;43.8
77954;BME280;67151;52.544;6.034;2023-06-26T01:06:40;101080;;;28;43.9
77954;BME280;67151;52.544;6.034;2023-06-26T01:06:55;101080;;;28;43.9
77954;BME280;67151;52.544;6.034;2023-06-26T01:07:10;101080;;;28;43.9
77954;BME280;67151;52.544;6.034;2023-06-26T01:07:25;101080;;;28;43.8
77954;BME280;67151;52.544;6.034;2023-06-26T01:07:40;101080;;;28;43.9
77954;BME280;67151;52.544;6.034;2023-06-26T01:07:56;101080;;;28;43.9
77954;BME280;67151;52.544;6.034;2023-06-26T01:08:11;101070;;;28;43.8
77954;BME280;67151;52.544;6.034;2023-06-26T01:08:25;101080;;;28;43.8
77954;BME280;67151;52.544;6.034;2023-06-26T01:08:41;101080;;;28.1;43.8
77954;BME280;67151;52.544;6.034;2023-06-26T01:08:55;101080;;;28.1;43.8
77954;BME280;67151;52.544;6.034;2023-06-26T01:09:10;101080;;;28.1;43.8
77954;BME280;67151;52.544;6.034;2023-06-26T01:09:25;101070;;;28.1;43.8
77954;BME280;67151;52.544;6.034;2023-06-26T01:09:40;101080;;;28.1;43.8
77954;BME280;67151;52.544;6.034;2023-06-26T01:09:55;101080;;;28.1;43.8
77954;BME280;67151;52.544;6.034;2023-06-26T01:10:10;101070;;;28;43.8
77954;BME280;67151;52.544;6.034;2023-06-26T01:10:25;101070;;;28;43.9
77954;BME280;67151;52.544;6.034;2023-06-26T01:10:40;101080;;;28;43.9
77954;BME280;67151;52.544;6.034;2023-06-26T01:10:55;101080;;;28;43.9
77954;BME280;67151;52.544;6.034;2023-06-26T01:11:10;101070;;;28;43.9
77954;BME280;67151;52.544;6.034;2023-06-26T01:11:25;101080;;;28;43.9
77954;BME280;67151;52.544;6.034;2023-06-26T01:11:40;101080;;;28;43.9
77954;BME280;67151;52.544;6.034;2023-06-26T01:11:55;101070;;;28;43.9
77954;BME280;67151;52.544;6.034;2023-06-26T01:12:10;101070;;;28;44
77954;BME280;67151;52.544;6.034;2023-06-26T01:12:25;101080;;;28;43.9
77954;BME280;67151;52.544;6.034;2023-06-26T01:12:40;101070;;;28;43.9
77954;BME280;67151;52.544;6.034;2023-06-26T01:12:55;101080;;;28;44
77954;BME280;67151;52.544;6.034;2023-06-26T01:13:11;101070;;;28;43.9
77954;BME280;67151;52.544;6.034;2023-06-26T01:13:25;101070;;;28;43.9
77954;BME280;67151;52.544;6.034;2023-06-26T01:13:41;101070;;;28;43.9
77954;BME280;67151;52.544;6.034;2023-06-26T01:13:55;101080;;;28;44
77954;BME280;67151;52.544;6.034;2023-06-26T01:14:10;101070;;;28;43.9
77954;BME280;67151;52.544;6.034;2023-06-26T01:14:25;101070;;;28;43.9
77954;BME280;67151;52.544;6.034;2023-06-26T01:14:40;101080;;;28;43.9
77954;BME280;67151;52.544;6.034;2023-06-26T01:14:55;101070;;;28;43.9
77954;BME280;67151;52.544;6.034;2023-06-26T01:15:10;101060;;;28;43.9
77954;BME280;67151;52.544;6.034;2023-06-26T01:15:25;101070;;;28;43.9
77954;BME280;67151;52.544;6.034;2023-06-26T01:15:40;101070;;;28;43.8
77954;BME280;67151;52.544;6.034;2023-06-26T01:15:55;101070;;;28;43.9
77954;BME280;67151;52.544;6.034;2023-06-26T01:16:10;101070;;;28;43.8
77954;BME280;67151;52.544;6.034;2023-06-26T01:16:25;101070;;;28.1;43.8
77954;BME280;67151;52.544;6.034;2023-06-26T01:16:40;101070;;;28;43.8
77954;BME280;67151;52.544;6.034;2023-06-26T01:16:55;101080;;;28;43.9
77954;BME280;67151;52.544;6.034;2023-06-26T01:17:10;101080;;;28;43.8
77954;BME280;67151;52.544;6.034;2023-06-26T01:17:25;101080;;;28.1;43.8
77954;BME280;67151;52.544;6.034;2023-06-26T01:17:40;101080;;;28;43.8
77954;BME280;67151;52.544;6.034;2023-06-26T01:17:55;101080;;;28;43.8
77954;BME280;67151;52.544;6.034;2023-06-26T01:18:10;101080;;;28;43.9
77954;BME280;67151;52.544;6.034;2023-06-26T01:18:25;101080;;;28;43.9
77954;BME280;67151;52.544;6.034;2023-06-26T01:18:40;101080;;;28;43.9
77954;BME280;67151;52.544;6.034;2023-06-26T01:18:55;101070;;;28;43.9
77954;BME280;67151;52.544;6.034;2023-06-26T01:19:11;101080;;;28;43.9
77954;BME280;67151;52.544;6.034;2023-06-26T01:19:26;101080;;;28;43.9
77954;BME280;67151;52.544;6.034;2023-06-26T01:19:40;101070;;;28;43.9
77954;BME280;67151;52.544;6.034;2023-06-26T01:19:55;101070;;;28;43.8
77954;BME280;67151;52.544;6.034;2023-06-26T01:20:10;101080;;;28;43.8
77954;BME280;67151;52.544;6.034;2023-06-26T01:20:25;101070;;;28;43.8
77954;BME280;67151;52.544;6.034;2023-06-26T01:20:40;101080;;;28;43.9
77954;BME280;67151;52.544;6.034;2023-06-26T01:20:55;101080;;;28;43.8
77954;BME280;67151;52.544;6.034;2023-06-26T01:21:10;101080;;;28;43.8
77954;BME280;67151;52.544;6.034;2023-06-26T01:21:25;101080;;;28;43.9
77954;BME280;67151;52.544;6.034;2023-06-26T01:21:42;101090;;;28;43.8
77954;BME280;67151;52.544;6.034;2023-06-26T01:21:56;101080;;;28;43.9
77954;BME280;67151;52.544;6.034;2023-06-26T01:22:14;101070;;;28;43.8
77954;BME280;67151;52.544;6.034;2023-06-26T01:22:27;101080;;;28;43.8
77954;BME280;67151;52.544;6.034;2023-06-26T01:22:43;101080;;;28;43.8
77954;BME280;67151;52.544;6.034;2023-06-26T01:22:56;101080;;;28;43.9
77954;BME280;67151;52.544;6.034;2023-06-26T01:23:25;101070;;;28;43.9
77954;BME280;67151;52.544;6.034;2023-06-26T01:23:29;101070;;;28;43.9
77954;BME280;67151;52.544;6.034;2023-06-26T01:23:44;101080;;;28;43.8
77954;BME280;67151;52.544;6.034;2023-06-26T01:23:57;101080;;;28;43.9
77954;BME280;67151;52.544;6.034;2023-06-26T01:24:12;101080;;;28;43.9
77954;BME280;67151;52.544;6.034;2023-06-26T01:24:27;101070;;;28;43.8
77954;BME280;67151;52.544;6.034;2023-06-26T01:24:42;101070;;;28;43.8